createdAt,value
2018-11-05T00:00:38.919Z,26.27
2018-11-05T00:03:15.150Z,29.90
2018-11-05T00:05:43.475Z,31.40
2018-11-05T00:08:11.545Z,30.23
2018-11-05T00:10:39.889Z,36.53
2018-11-05T00:13:08.120Z,28.00
2018-11-05T00:15:36.794Z,27.10
2018-11-05T00:18:05.486Z,31.93
2018-11-05T00:20:34.277Z,26.27
2018-11-05T00:23:02.422Z,29.40
2018-11-05T00:25:30.508Z,31.43
2018-11-05T00:27:59.077Z,32.57
2018-11-05T00:30:27.275Z,27.00
2018-11-05T00:32:55.445Z,28.93
2018-11-05T00:35:23.784Z,37.30
2018-11-05T00:37:51.981Z,28.70
2018-11-05T00:40:20.351Z,27.50
2018-11-05T00:42:48.350Z,28.10
2018-11-05T00:45:16.469Z,31.77
2018-11-05T00:47:44.964Z,23.53
2018-11-05T00:50:14.181Z,28.93
2018-11-05T00:52:42.542Z,25.57
2018-11-05T00:55:11.593Z,29.30
2018-11-05T00:57:39.886Z,26.67
2018-11-05T01:00:11.144Z,29.17
2018-11-05T01:02:39.951Z,29.80
2018-11-05T01:05:10.195Z,25.00
2018-11-05T01:07:38.934Z,29.23
2018-11-05T01:10:07.717Z,31.10
2018-11-05T01:12:36.384Z,30.50
2018-11-05T01:15:05.438Z,28.10
2018-11-05T01:17:33.789Z,37.50
2018-11-05T01:20:01.990Z,26.37
2018-11-05T01:22:30.176Z,25.47
2018-11-05T01:24:58.332Z,29.17
2018-11-05T01:27:26.629Z,26.40
2018-11-05T01:29:54.743Z,38.33
2018-11-05T01:32:22.815Z,28.57
2018-11-05T01:34:50.885Z,25.87
2018-11-05T01:37:19.117Z,29.40
2018-11-05T01:39:46.984Z,29.63
2018-11-05T01:42:15.486Z,35.13
2018-11-05T01:44:43.644Z,32.80
2018-11-05T01:47:11.814Z,34.33
2018-11-05T01:49:39.932Z,30.30
2018-11-05T01:52:09.091Z,41.13
2018-11-05T01:54:37.646Z,30.87
2018-11-05T01:57:05.983Z,39.67
2018-11-05T01:59:34.214Z,30.10
2018-11-05T02:02:02.517Z,30.07
2018-11-05T02:04:30.564Z,34.17
2018-11-05T02:06:58.683Z,35.50
2018-11-05T02:09:26.893Z,30.20
2018-11-05T02:11:54.898Z,35.13
2018-11-05T02:14:22.998Z,29.97
2018-11-05T02:16:51.216Z,25.40
2018-11-05T02:19:19.351Z,34.57
2018-11-05T02:21:47.396Z,30.00
2018-11-05T02:24:15.461Z,37.27
2018-11-05T02:26:44.866Z,35.77
2018-11-05T02:29:12.981Z,44.07
2018-11-05T02:31:41.210Z,39.40
2018-11-05T02:34:09.246Z,36.00
2018-11-05T02:36:37.456Z,46.90
2018-11-05T02:39:06.709Z,34.47
2018-11-05T02:41:34.955Z,41.27
2018-11-05T02:44:05.679Z,38.47
2018-11-05T02:46:33.874Z,36.57
2018-11-05T02:49:02.090Z,45.47
2018-11-05T02:51:30.437Z,31.33
2018-11-05T02:53:58.671Z,33.53
2018-11-05T02:56:26.737Z,33.80
2018-11-05T02:58:54.774Z,40.70
2018-11-05T03:01:23.003Z,36.13
2018-11-05T03:03:51.234Z,29.87
2018-11-05T03:06:20.363Z,33.30
2018-11-05T03:08:48.427Z,31.50
2018-11-05T03:11:16.555Z,31.83
2018-11-05T03:13:44.628Z,34.53
2018-11-05T03:16:12.761Z,39.30
2018-11-05T03:18:41.111Z,41.53
2018-11-05T03:21:09.279Z,43.90
2018-11-05T03:23:37.469Z,49.23
2018-11-05T03:26:05.936Z,59.97
2018-11-05T03:28:34.260Z,43.97
2018-11-05T03:31:02.446Z,89.07
2018-11-05T03:33:30.654Z,82.73
2018-11-05T03:35:58.865Z,37.47
2018-11-05T03:38:27.017Z,53.60
2018-11-05T03:41:00.199Z,33.40
2018-11-05T03:43:28.614Z,33.23
2018-11-05T03:45:56.862Z,52.40
2018-11-05T03:48:24.979Z,40.20
2018-11-05T03:50:53.137Z,44.63
2018-11-05T03:53:21.261Z,34.57
2018-11-05T03:55:49.363Z,67.47
2018-11-05T03:58:17.525Z,34.47
2018-11-05T04:00:45.574Z,47.83
2018-11-05T04:03:13.772Z,189.03
2018-11-05T04:05:41.947Z,116.57
2018-11-05T04:08:10.142Z,102.50
2018-11-05T04:10:38.512Z,105.47
2018-11-05T04:13:06.655Z,184.27
2018-11-05T04:15:35.195Z,98.70
2018-11-05T04:18:03.310Z,171.20
2018-11-05T04:20:31.464Z,123.87
2018-11-05T04:22:59.728Z,79.07
2018-11-05T04:25:27.863Z,55.57
2018-11-05T04:27:58.078Z,132.97
2018-11-05T04:30:26.273Z,47.30
2018-11-05T04:32:54.314Z,76.30
2018-11-05T04:35:22.611Z,122.27
2018-11-05T04:37:50.801Z,59.03
2018-11-05T04:40:19.102Z,37.57
2018-11-05T04:42:47.308Z,40.87
2018-11-05T04:45:15.425Z,50.90
2018-11-05T04:47:43.937Z,30.23
2018-11-05T04:50:13.878Z,32.80
2018-11-05T04:52:42.779Z,38.10
2018-11-05T04:55:11.174Z,32.13
2018-11-05T04:57:39.328Z,29.03
2018-11-05T05:00:09.702Z,26.40
2018-11-05T05:02:39.157Z,32.17
2018-11-05T05:05:07.552Z,39.23
2018-11-05T05:07:35.733Z,30.37
2018-11-05T05:10:04.186Z,27.47
2018-11-05T05:12:32.537Z,34.70
2018-11-05T05:15:00.856Z,45.90
2018-11-05T05:17:29.564Z,33.30
2018-11-05T05:19:57.853Z,29.53
2018-11-05T05:22:26.757Z,24.40
2018-11-05T05:24:54.970Z,33.50
2018-11-05T05:27:23.117Z,19.90
2018-11-05T05:29:51.337Z,21.87
2018-11-05T05:32:19.534Z,23.80
2018-11-05T05:34:47.790Z,24.77
2018-11-05T05:37:16.347Z,19.47
2018-11-05T05:39:44.690Z,20.13
2018-11-05T05:42:13.032Z,20.57
2018-11-05T05:44:41.450Z,19.30
2018-11-05T05:47:09.762Z,23.73
2018-11-05T05:49:37.919Z,26.50
2018-11-05T05:52:06.232Z,22.60
2018-11-05T05:54:34.978Z,26.83
2018-11-05T05:57:03.556Z,20.43
2018-11-05T05:59:32.418Z,15.33
2018-11-05T06:02:04.233Z,20.57
2018-11-05T06:04:32.655Z,24.83
2018-11-05T06:07:00.975Z,28.60
2018-11-05T06:09:29.266Z,20.50
2018-11-05T06:11:57.761Z,25.97
2018-11-05T06:14:26.041Z,26.27
2018-11-05T06:17:06.231Z,26.30
2018-11-05T06:19:34.639Z,19.60
2018-11-05T06:22:03.071Z,31.90
2018-11-05T06:24:31.287Z,36.63
2018-11-05T06:27:01.575Z,28.23
2018-11-05T06:29:30.479Z,25.33
2018-11-05T06:31:59.067Z,12.40
2018-11-05T06:34:27.724Z,19.20
2018-11-05T06:36:56.131Z,12.93
2018-11-05T06:42:01.479Z,19.30
2018-11-05T06:44:29.714Z,20.30
2018-11-05T06:46:57.979Z,13.63
2018-11-05T06:49:35.766Z,10.83
2018-11-05T06:52:04.966Z,16.33
2018-11-05T06:54:33.459Z,17.13
2018-11-05T06:57:03.081Z,17.43
2018-11-05T06:59:32.354Z,19.93
2018-11-05T07:02:00.898Z,17.50
2018-11-05T07:04:36.251Z,25.67
2018-11-05T07:12:38.160Z,22.20
2018-11-05T07:20:35.289Z,22.50
2018-11-05T07:25:53.489Z,30.77
2018-11-05T07:31:14.394Z,26.40
2018-11-05T07:39:37.795Z,29.87
2018-11-05T07:42:07.385Z,28.50
2018-11-05T07:44:41.506Z,28.73
2018-11-05T07:47:11.289Z,34.03
2018-11-05T07:52:25.060Z,30.80
2018-11-05T08:00:33.724Z,52.53
2018-11-05T08:03:02.603Z,45.43
2018-11-05T08:08:21.144Z,32.70
2018-11-05T08:10:58.709Z,36.40
2018-11-05T08:13:27.505Z,41.57
2018-11-05T08:21:38.327Z,34.30
2018-11-05T08:24:13.278Z,43.03
2018-11-05T08:29:24.007Z,32.70
2018-11-05T08:31:53.487Z,35.30
2018-11-05T08:39:56.355Z,29.73
2018-11-05T08:42:39.636Z,32.77
2018-11-05T08:48:02.833Z,27.50
2018-11-05T08:50:36.292Z,32.77
2018-11-05T08:58:41.861Z,40.50
2018-11-05T09:07:43.150Z,41.83
2018-11-05T09:13:02.616Z,23.80
2018-11-05T09:15:35.518Z,20.53
2018-11-05T09:26:57.049Z,31.63
2018-11-05T09:32:36.391Z,21.00
2018-11-05T09:40:35.189Z,20.73
2018-11-05T09:52:05.302Z,15.30
2018-11-05T09:54:44.149Z,18.67
2018-11-05T10:08:32.092Z,23.83
2018-11-05T10:19:21.075Z,17.30
2018-11-05T10:27:32.307Z,18.43
2018-11-05T10:35:39.382Z,16.97
2018-11-05T10:52:54.936Z,13.97
2018-11-05T11:21:18.671Z,18.77
2018-11-05T11:35:10.687Z,16.90
2018-11-05T11:43:24.440Z,19.30
2018-11-05T11:46:01.772Z,19.80
2018-11-05T13:23:08.345Z,16.73
2018-11-05T13:25:38.024Z,15.83
2018-11-05T14:02:06.834Z,21.40
2018-11-05T14:04:40.470Z,32.90
2018-11-05T14:12:55.920Z,26.13
2018-11-05T14:30:30.471Z,22.43
2018-11-05T14:33:03.254Z,31.77
2018-11-05T14:40:55.650Z,23.37
2018-11-05T14:57:14.577Z,17.60
2018-11-05T15:16:40.452Z,27.13
2018-11-05T15:36:41.593Z,39.07
2018-11-05T16:44:17.247Z,39.60
2018-11-05T17:10:36.198Z,29.20
2018-11-05T17:48:06.244Z,37.67
2018-11-05T18:13:59.272Z,23.47
2018-11-05T18:25:43.832Z,18.20
2018-11-05T18:28:23.245Z,24.40
2018-11-05T18:34:03.208Z,19.50
2018-11-05T18:39:25.630Z,26.93
2018-11-05T18:48:08.322Z,18.70
2018-11-05T19:05:11.885Z,28.50
2018-11-05T19:10:31.200Z,29.73
2018-11-05T19:15:49.032Z,36.50
2018-11-05T19:18:25.173Z,40.37
2018-11-05T19:21:06.306Z,35.73
2018-11-05T19:23:36.106Z,37.23
2018-11-05T19:31:41.862Z,46.97
2018-11-05T19:34:11.558Z,32.37
2018-11-05T19:36:42.138Z,38.37
2018-11-05T19:47:27.993Z,43.30
2018-11-05T19:55:16.875Z,50.37
2018-11-05T20:00:32.724Z,24.00
2018-11-05T20:03:01.986Z,44.53
2018-11-05T20:05:32.580Z,42.57
2018-11-05T20:08:02.034Z,27.30
2018-11-05T20:10:32.222Z,25.03
2018-11-05T20:16:16.255Z,31.97
2018-11-05T20:18:45.846Z,43.30
2018-11-05T20:31:49.799Z,24.83
2018-11-05T20:37:35.400Z,28.53
2018-11-05T20:40:07.767Z,16.40
2018-11-05T20:42:36.708Z,18.73
2018-11-05T20:45:12.997Z,15.77
2018-11-05T20:53:11.068Z,13.83
2018-11-05T20:55:44.130Z,19.47
2018-11-05T20:58:13.954Z,16.80
2018-11-05T21:03:28.572Z,9.87
2018-11-05T21:08:39.643Z,13.47
2018-11-05T21:11:08.425Z,11.10
2018-11-05T21:13:37.367Z,13.03
2018-11-05T21:16:08.291Z,8.63
2018-11-05T21:18:37.281Z,5.93
2018-11-05T21:21:08.239Z,8.27
2018-11-05T21:23:38.709Z,5.60
2018-11-05T21:26:08.191Z,10.13
2018-11-05T21:39:30.617Z,9.50
2018-11-05T21:41:59.222Z,8.37
2018-11-05T21:44:30.738Z,4.97
2018-11-05T21:47:00.489Z,4.50
2018-11-05T21:49:28.995Z,8.30
2018-11-05T21:51:57.362Z,8.83
2018-11-05T21:54:29.334Z,5.87
2018-11-05T21:57:08.074Z,5.43
2018-11-05T21:59:39.935Z,7.20
2018-11-05T22:02:15.129Z,8.00
2018-11-05T22:04:46.477Z,5.83
2018-11-05T22:07:18.601Z,4.30
2018-11-05T22:09:48.985Z,4.60
2018-11-05T22:15:00.522Z,5.63
2018-11-05T22:17:28.973Z,3.17
2018-11-05T22:19:57.667Z,4.70
2018-11-05T22:22:26.224Z,4.57
2018-11-05T22:24:54.862Z,3.83
2018-11-05T22:27:23.355Z,4.43
2018-11-05T22:32:32.628Z,4.70
2018-11-05T22:35:02.507Z,5.10
2018-11-05T22:37:30.870Z,4.53
2018-11-05T22:39:59.611Z,3.67
2018-11-05T22:42:27.927Z,3.70
2018-11-05T22:44:56.429Z,7.80
2018-11-05T22:47:24.820Z,4.13
2018-11-05T22:49:53.062Z,4.30
2018-11-05T22:52:21.614Z,2.70
2018-11-05T22:54:49.929Z,4.43
2018-11-05T22:57:18.120Z,4.17
2018-11-05T22:59:47.050Z,5.13
2018-11-05T23:02:16.972Z,3.73
2018-11-05T23:04:45.090Z,4.07
2018-11-05T23:07:13.421Z,4.70
2018-11-05T23:09:41.804Z,4.17
2018-11-05T23:12:10.259Z,3.37
2018-11-05T23:14:38.852Z,4.77
2018-11-05T23:17:07.443Z,3.40
2018-11-05T23:19:35.722Z,3.30
2018-11-05T23:22:04.541Z,3.27
2018-11-05T23:24:32.782Z,13.20
2018-11-05T23:27:01.242Z,3.40
2018-11-05T23:29:29.588Z,3.67
2018-11-05T23:31:57.766Z,4.30
2018-11-05T23:34:26.255Z,5.23
2018-11-05T23:36:55.834Z,9.10
2018-11-05T23:39:23.954Z,5.43
2018-11-05T23:41:52.348Z,3.80
2018-11-05T23:44:20.422Z,4.87
2018-11-05T23:46:48.596Z,4.03
2018-11-05T23:49:16.782Z,5.77
2018-11-05T23:51:44.969Z,3.37
2018-11-05T23:54:13.208Z,5.53
2018-11-05T23:56:41.486Z,3.20
2018-11-05T23:59:09.765Z,2.93
